createdAt,value
2022-08-16T00:00:22.239Z,100473.72
2022-08-16T00:02:50.591Z,100476.81
2022-08-16T00:05:20.066Z,100483.44
2022-08-16T00:07:49.454Z,100479.09
2022-08-16T00:10:26.456Z,100475.38
2022-08-16T00:12:57.043Z,100469.88
2022-08-16T00:15:51.371Z,100482.00
2022-08-16T00:18:19.471Z,100477.97
2022-08-16T00:20:50.867Z,100492.84
2022-08-16T00:23:24.572Z,100485.72
2022-08-16T00:26:34.858Z,100491.88
2022-08-16T00:28:55.846Z,100500.44
2022-08-16T00:31:24.191Z,100498.03
2022-08-16T00:33:52.217Z,100510.47
2022-08-16T00:36:20.544Z,100498.69
2022-08-16T00:38:49.600Z,100497.38
2022-08-16T00:41:17.898Z,100500.47
2022-08-16T00:43:47.080Z,100493.66
2022-08-16T00:46:33.759Z,100500.63
2022-08-16T00:49:05.181Z,100498.19
2022-08-16T00:51:33.706Z,100495.78
2022-08-16T00:54:02.782Z,100492.06
2022-08-16T00:56:56.513Z,100500.63
2022-08-16T00:59:25.217Z,100491.56
2022-08-16T01:01:54.102Z,100499.66
2022-08-16T01:04:30.076Z,100499.16
2022-08-16T01:07:01.051Z,100505.47
2022-08-16T01:09:33.608Z,100507.41
2022-08-16T01:12:03.149Z,100506.94
2022-08-16T01:14:36.655Z,100505.63
2022-08-16T01:17:08.245Z,100505.16
2022-08-16T01:19:41.101Z,100510.66
2022-08-16T01:22:48.373Z,100510.16
2022-08-16T01:25:07.803Z,100494.31
2022-08-16T01:27:39.914Z,100506.59
2022-08-16T01:30:20.681Z,100504.50
2022-08-16T01:33:01.763Z,100505.31
2022-08-16T01:35:42.252Z,100507.56
2022-08-16T01:38:20.023Z,100499.66
2022-08-16T01:40:50.958Z,100501.09
2022-08-16T01:43:18.921Z,100507.41
2022-08-16T01:45:47.309Z,100515.16
2022-08-16T01:48:28.574Z,100510.00
2022-08-16T01:51:08.185Z,100510.31
2022-08-16T01:53:40.687Z,100515.03
2022-08-16T01:56:22.068Z,100508.22
2022-08-16T01:58:52.548Z,100515.63
2022-08-16T02:01:20.274Z,100515.16
2022-08-16T02:03:50.570Z,100520.97
2022-08-16T02:06:34.667Z,100511.09
2022-08-16T02:09:11.743Z,100517.72
2022-08-16T02:11:47.600Z,100516.44
2022-08-16T02:14:18.632Z,100517.56
2022-08-16T02:16:49.595Z,100511.59
2022-08-16T02:19:19.800Z,100519.34
2022-08-16T02:22:08.531Z,100510.59
2022-08-16T02:24:45.979Z,100517.56
2022-08-16T02:27:15.617Z,100508.00
2022-08-16T02:29:44.370Z,100501.22
2022-08-16T02:32:48.993Z,100505.91
2022-08-16T02:35:04.686Z,100506.22
2022-08-16T02:37:52.070Z,100507.69
2022-08-16T02:40:22.115Z,100504.44
2022-08-16T02:42:52.598Z,100500.09
2022-08-16T02:45:24.790Z,100491.00
2022-08-16T02:48:00.421Z,100495.56
2022-08-16T02:50:53.545Z,100493.94
2022-08-16T02:53:23.672Z,100507.16
2022-08-16T02:55:51.703Z,100507.47
2022-08-16T02:58:25.130Z,100499.56
2022-08-16T03:00:56.042Z,100494.41
2022-08-16T03:03:26.205Z,100500.22
2022-08-16T03:05:54.350Z,100493.91
2022-08-16T03:08:51.316Z,100500.03
2022-08-16T03:11:16.838Z,100498.41
2022-08-16T03:13:51.135Z,100496.00
2022-08-16T03:16:33.045Z,100498.25
2022-08-16T03:19:08.306Z,100496.44
2022-08-16T03:21:38.265Z,100502.13
2022-08-16T03:24:29.425Z,100498.88
2022-08-16T03:26:57.735Z,100492.91
2022-08-16T03:29:30.117Z,100492.91
2022-08-16T03:31:59.249Z,100490.78
2022-08-16T03:34:27.505Z,100496.28
2022-08-16T03:36:55.934Z,100498.84
2022-08-16T03:39:24.373Z,100496.91
2022-08-16T03:41:59.780Z,100507.41
2022-08-16T03:44:44.404Z,100515.13
2022-08-16T03:47:18.656Z,100505.28
2022-08-16T03:49:51.976Z,100509.97
2022-08-16T03:52:20.551Z,100511.38
2022-08-16T03:54:58.162Z,100517.19
2022-08-16T03:57:31.706Z,100524.59
2022-08-16T04:00:12.346Z,100521.69
2022-08-16T04:03:07.356Z,100518.13
2022-08-16T04:05:37.696Z,100529.41
2022-08-16T04:08:22.394Z,100530.03
2022-08-16T04:10:52.755Z,100535.84
2022-08-16T04:14:00.597Z,100533.91
2022-08-16T04:16:27.245Z,100542.47
2022-08-16T04:19:02.511Z,100538.09
2022-08-16T04:21:32.394Z,100547.44
2022-08-16T04:24:00.770Z,100545.00
2022-08-16T04:26:30.955Z,100542.59
2022-08-16T04:29:16.659Z,100546.47
2022-08-16T04:31:56.316Z,100538.53
2022-08-16T04:34:28.021Z,100543.22
2022-08-16T04:36:58.022Z,100535.63
2022-08-16T04:39:44.854Z,100537.06
2022-08-16T04:42:15.090Z,100545.28
2022-08-16T04:44:53.508Z,100546.72
2022-08-16T04:47:25.276Z,100545.91
2022-08-16T04:49:59.946Z,100543.78
2022-08-16T04:52:34.213Z,100541.06
2022-08-16T04:55:07.427Z,100546.03
2022-08-16T04:57:35.582Z,100542.50
2022-08-16T05:00:32.895Z,100555.69
2022-08-16T05:03:01.317Z,100553.28
2022-08-16T05:05:34.604Z,100553.28
2022-08-16T05:08:28.433Z,100551.66
2022-08-16T05:11:00.373Z,100553.09
2022-08-16T05:13:39.955Z,100559.69
2022-08-16T05:16:11.914Z,100555.66
2022-08-16T05:18:45.999Z,100555.16
2022-08-16T05:21:14.888Z,100556.28
2022-08-16T05:23:45.465Z,100559.00
2022-08-16T05:26:27.935Z,100554.97
2022-08-16T05:28:56.483Z,100562.88
2022-08-16T05:31:29.314Z,100558.81
2022-08-16T05:34:00.238Z,100561.88
2022-08-16T05:36:34.347Z,100569.28
2022-08-16T05:39:06.336Z,100571.53
2022-08-16T05:41:44.743Z,100576.69
2022-08-16T05:44:24.213Z,100579.44
2022-08-16T05:46:54.730Z,100572.34
2022-08-16T05:49:24.647Z,100577.00
2022-08-16T05:51:55.367Z,100571.03
2022-08-16T05:54:25.179Z,100579.25
2022-08-16T05:56:54.197Z,100576.81
2022-08-16T05:59:26.813Z,100574.59
2022-08-16T06:01:55.767Z,100595.69
2022-08-16T06:04:36.702Z,100589.09
2022-08-16T06:07:08.838Z,100589.59
2022-08-16T06:09:43.497Z,100590.41
2022-08-16T06:12:26.682Z,100581.38
2022-08-16T06:14:59.157Z,100600.13
2022-08-16T06:17:43.291Z,100596.75
2022-08-16T06:20:18.603Z,100594.53
2022-08-16T06:22:57.791Z,100604.06
2022-08-16T06:25:36.179Z,100606.47
2022-08-16T06:28:08.892Z,100611.66
2022-08-16T06:30:43.752Z,100610.22
2022-08-16T06:33:13.480Z,100607.47
2022-08-16T06:35:55.229Z,100609.09
2022-08-16T06:38:32.177Z,100601.81
2022-08-16T06:41:03.830Z,100614.09
2022-08-16T06:43:32.017Z,100611.34
2022-08-16T06:46:00.811Z,100619.06
2022-08-16T06:48:33.781Z,100615.50
2022-08-16T06:51:04.578Z,100616.44
2022-08-16T06:53:35.743Z,100611.28
2022-08-16T06:56:14.473Z,100612.09
2022-08-16T06:58:52.464Z,100614.34
2022-08-16T07:01:26.286Z,100611.91
2022-08-16T07:04:11.895Z,100615.44
2022-08-16T07:06:43.110Z,100622.88
2022-08-16T07:09:11.847Z,100617.38
2022-08-16T07:11:46.111Z,100629.97
2022-08-16T07:14:25.743Z,100621.75
2022-08-16T07:16:58.385Z,100627.22
2022-08-16T07:20:01.512Z,100634.63
2022-08-16T07:22:38.795Z,100628.84
2022-08-16T07:25:07.284Z,100627.72
2022-08-16T07:27:37.353Z,100639.50
2022-08-16T07:30:38.155Z,100630.16
2022-08-16T07:32:56.494Z,100641.94
2022-08-16T07:35:24.498Z,100636.94
2022-08-16T07:37:54.204Z,100639.69
2022-08-16T07:40:37.017Z,100643.25
2022-08-16T07:43:10.359Z,100638.06
2022-08-16T07:45:39.218Z,100645.69
2022-08-16T07:48:12.465Z,100656.34
2022-08-16T07:50:57.729Z,100646.97
2022-08-16T07:53:30.135Z,100652.16
2022-08-16T07:55:58.538Z,100652.97
2022-08-16T07:58:34.198Z,100650.72
2022-08-16T08:01:10.063Z,100656.22
2022-08-16T08:03:42.498Z,100657.84
2022-08-16T08:06:13.386Z,100659.44
2022-08-16T08:08:50.777Z,100659.44
2022-08-16T08:11:19.676Z,100667.38
2022-08-16T08:13:50.767Z,100669.81
2022-08-16T08:16:19.946Z,100671.72
2022-08-16T08:18:50.459Z,100676.91
2022-08-16T08:21:27.245Z,100668.38
2022-08-16T08:23:57.641Z,100673.53
2022-08-16T08:26:25.970Z,100669.69
2022-08-16T08:28:53.690Z,100674.84
2022-08-16T08:31:28.645Z,100670.97
2022-08-16T08:33:57.073Z,100675.34
2022-08-16T08:36:33.024Z,100671.47
2022-08-16T08:39:03.133Z,100678.59
2022-08-16T08:41:40.507Z,100681.03
2022-08-16T08:44:28.866Z,100683.44
2022-08-16T08:47:00.619Z,100678.78
2022-08-16T08:49:50.311Z,100677.66
2022-08-16T08:52:35.023Z,100680.09
2022-08-16T08:55:11.040Z,100680.91
2022-08-16T08:57:40.730Z,100680.91
2022-08-16T09:00:13.493Z,100686.56
2022-08-16T09:02:42.622Z,100686.75
2022-08-16T09:05:15.466Z,100685.31
2022-08-16T09:08:01.650Z,100679.84
2022-08-16T09:10:34.848Z,100695.88
2022-08-16T09:13:08.667Z,100691.72
2022-08-16T09:15:39.683Z,100695.44
2022-08-16T09:18:25.052Z,100687.22
2022-08-16T09:20:58.885Z,100690.66
2022-08-16T09:23:31.397Z,100686.47
2022-08-16T09:26:42.948Z,100696.00
2022-08-16T09:29:15.438Z,100700.88
2022-08-16T09:31:41.965Z,100694.75
2022-08-16T09:34:10.440Z,100688.13
2022-08-16T09:36:46.177Z,100692.19
2022-08-16T09:39:15.809Z,100698.16
2022-08-16T09:41:53.213Z,100703.53
2022-08-16T09:45:12.829Z,100699.84
2022-08-16T09:47:11.644Z,100704.38
2022-08-16T09:49:41.081Z,100698.25
2022-08-16T09:52:11.245Z,100694.88
2022-08-16T09:54:44.562Z,100703.31
2022-08-16T09:57:14.435Z,100702.34
2022-08-16T09:59:43.328Z,100704.47
2022-08-16T10:02:26.494Z,100699.16
2022-08-16T10:04:56.396Z,100699.66
2022-08-16T10:07:24.830Z,100699.81
2022-08-16T10:09:55.675Z,100693.03
2022-08-16T10:12:44.123Z,100690.13
2022-08-16T10:15:16.024Z,100695.81
2022-08-16T10:18:00.347Z,100701.47
2022-08-16T10:20:32.557Z,100698.59
2022-08-16T10:23:06.723Z,100702.00
2022-08-16T10:27:16.669Z,100702.16
2022-08-16T10:28:28.989Z,100699.91
2022-08-16T10:30:58.978Z,100699.59
2022-08-16T10:33:29.299Z,100700.91
2022-08-16T10:36:03.058Z,100702.69
2022-08-16T10:38:33.215Z,100703.66
2022-08-16T10:41:05.173Z,100691.72
2022-08-16T10:43:36.834Z,100694.47
2022-08-16T10:46:39.842Z,100695.13
2022-08-16T10:48:52.796Z,100700.81
2022-08-16T10:51:20.512Z,100704.19
2022-08-16T10:54:02.694Z,100698.38
2022-08-16T10:56:44.338Z,100700.00
2022-08-16T10:59:38.537Z,100701.50
2022-08-16T11:02:59.478Z,100711.22
2022-08-16T11:05:08.107Z,100706.34
2022-08-16T11:07:45.600Z,100708.78
2022-08-16T11:19:06.363Z,100717.19
2022-08-16T11:22:39.247Z,100715.41
2022-08-16T11:24:41.477Z,100720.59
2022-08-16T11:27:23.943Z,100729.66
2022-08-16T11:30:01.327Z,100733.22
2022-08-16T11:32:33.829Z,100735.31
2022-08-16T11:35:13.334Z,100739.38
2022-08-16T11:40:37.746Z,100742.75
2022-08-16T11:43:06.804Z,100747.66
2022-08-16T11:45:38.305Z,100747.00
2022-08-16T11:48:08.579Z,100745.22
2022-08-16T11:50:36.984Z,100741.00
2022-08-16T11:53:08.170Z,100737.59
2022-08-16T11:55:38.399Z,100746.81
2022-08-16T11:58:07.803Z,100738.38
2022-08-16T12:00:50.617Z,100738.06
2022-08-16T12:03:24.964Z,100725.91
2022-08-16T12:06:00.544Z,100730.59
2022-08-16T12:08:28.398Z,100733.00
2022-08-16T12:10:59.427Z,100736.22
2022-08-16T12:13:30.186Z,100737.84
2022-08-16T12:15:58.198Z,100740.41
2022-08-16T12:18:27.260Z,100746.41
2022-08-16T12:20:55.459Z,100749.31
2022-08-16T12:23:26.261Z,100744.94
2022-08-16T12:25:54.477Z,100747.50
2022-08-16T12:28:37.072Z,100747.19
2022-08-16T12:31:10.445Z,100743.44
2022-08-16T12:33:44.765Z,100750.38
2022-08-16T12:36:14.029Z,100746.69
2022-08-16T12:38:48.269Z,100744.06
2022-08-16T12:41:25.369Z,100744.88
2022-08-16T12:43:57.301Z,100739.84
2022-08-16T12:46:30.933Z,100743.41
2022-08-16T12:49:00.337Z,100743.06
2022-08-16T12:51:57.744Z,100747.94
2022-08-16T12:54:20.151Z,100742.09
2022-08-16T12:56:48.137Z,100733.97
2022-08-16T12:59:20.885Z,100738.81
2022-08-16T13:01:50.644Z,100730.34
2022-08-16T13:04:31.381Z,100729.69
2022-08-16T13:09:31.904Z,100731.59
2022-08-16T13:12:18.881Z,100736.78
2022-08-16T13:14:49.875Z,100726.22
2022-08-16T13:17:21.259Z,100724.75
2022-08-16T13:20:09.201Z,100725.22
2022-08-16T13:25:12.274Z,100722.59
2022-08-16T13:28:01.506Z,100735.25
2022-08-16T13:30:35.999Z,100732.16
2022-08-16T13:33:12.502Z,100726.44
2022-08-16T13:35:43.917Z,100723.81
2022-08-16T13:38:21.691Z,100730.63
2022-08-16T13:40:53.793Z,100728.03
2022-08-16T13:43:24.996Z,100740.81
2022-08-16T13:45:55.297Z,100731.06
2022-08-16T13:48:25.363Z,100741.78
2022-08-16T13:50:56.378Z,100738.53
2022-08-16T13:53:24.888Z,100749.25
2022-08-16T13:55:58.578Z,100740.16
2022-08-16T13:58:37.210Z,100748.91
2022-08-16T14:01:17.119Z,100748.22
2022-08-16T14:03:45.260Z,100739.63
2022-08-16T14:06:15.160Z,100737.66
2022-08-16T14:08:58.825Z,100750.47
2022-08-16T14:11:34.470Z,100749.78
2022-08-16T14:14:05.342Z,100758.88
2022-08-16T14:16:34.889Z,100749.13
2022-08-16T14:19:03.158Z,100751.19
2022-08-16T14:21:35.455Z,100737.88
2022-08-16T14:24:16.728Z,100742.25
2022-08-16T14:26:51.192Z,100745.00
2022-08-16T14:29:20.869Z,100752.63
2022-08-16T14:31:49.559Z,100745.47
2022-08-16T14:34:21.514Z,100747.09
2022-08-16T14:36:54.900Z,100737.53
2022-08-16T14:39:23.264Z,100741.72
2022-08-16T14:41:53.704Z,100745.75
2022-08-16T14:44:24.107Z,100739.41
2022-08-16T14:46:54.024Z,100733.56
2022-08-16T14:49:21.735Z,100744.25
2022-08-16T14:51:49.484Z,100744.41
2022-08-16T14:54:18.567Z,100742.09
2022-08-16T14:56:54.873Z,100734.63
2022-08-16T14:59:23.663Z,100740.63
2022-08-16T15:01:59.295Z,100733.94
2022-08-16T15:04:32.363Z,100727.28
2022-08-16T15:07:11.098Z,100728.91
2022-08-16T15:09:44.668Z,100726.94
2022-08-16T15:12:33.622Z,100721.75
2022-08-16T15:15:04.261Z,100722.56
2022-08-16T15:17:33.971Z,100732.00
2022-08-16T15:20:08.636Z,100728.91
2022-08-16T15:22:41.977Z,100729.38
2022-08-16T15:25:15.901Z,100728.69
2022-08-16T15:27:43.708Z,100731.00
2022-08-16T15:30:57.843Z,100727.06
2022-08-16T15:33:04.745Z,100731.00
2022-08-16T15:35:33.476Z,100734.56
2022-08-16T15:38:09.183Z,100730.66
2022-08-16T15:40:57.994Z,100731.16
2022-08-16T15:43:33.793Z,100728.84
2022-08-16T15:46:35.298Z,100743.13
2022-08-16T15:49:15.453Z,100741.97
2022-08-16T15:51:45.738Z,100745.53
2022-08-16T15:54:30.115Z,100745.22
2022-08-16T15:57:11.463Z,100742.44
2022-08-16T15:59:48.784Z,100742.44
2022-08-16T16:02:29.604Z,100741.63
2022-08-16T16:05:01.839Z,100742.44
2022-08-16T16:07:32.065Z,100748.31
2022-08-16T16:10:02.545Z,100753.03
2022-08-16T16:12:51.145Z,100745.53
2022-08-16T16:15:22.611Z,100738.06
2022-08-16T16:17:52.499Z,100741.63
2022-08-16T16:20:21.366Z,100747.63
2022-08-16T16:22:49.376Z,100747.28
2022-08-16T16:25:18.351Z,100753.63
2022-08-16T16:27:55.881Z,100747.41
2022-08-16T16:30:38.305Z,100747.06
2022-08-16T16:33:20.459Z,100752.25
2022-08-16T16:35:55.524Z,100747.06
2022-08-16T16:38:28.501Z,100740.72
2022-08-16T16:40:56.223Z,100737.97
2022-08-16T16:43:31.343Z,100732.44
2022-08-16T16:46:00.445Z,100741.91
2022-08-16T16:48:34.912Z,100737.97
2022-08-16T16:51:09.466Z,100741.91
2022-08-16T16:53:39.388Z,100733.94
2022-08-16T16:56:10.540Z,100732.00
2022-08-16T16:59:01.023Z,100732.00
2022-08-16T17:01:59.344Z,100732.44
2022-08-16T17:04:32.493Z,100736.00
2022-08-16T17:07:01.427Z,100732.09
2022-08-16T17:09:29.550Z,100723.81
2022-08-16T17:11:58.149Z,100737.63
2022-08-16T17:14:33.563Z,100729.66
2022-08-16T17:17:04.015Z,100729.66
2022-08-16T17:19:32.174Z,100730.84
2022-08-16T17:22:00.201Z,100725.66
2022-08-16T17:24:33.084Z,100727.63
2022-08-16T17:27:07.851Z,100736.72
2022-08-16T17:29:42.853Z,100732.34
2022-08-16T17:32:34.033Z,100733.47
2022-08-16T17:35:10.799Z,100736.94
2022-08-16T17:37:48.786Z,100737.25
2022-08-16T17:40:40.808Z,100736.78
2022-08-16T17:43:13.415Z,100749.00
2022-08-16T17:45:43.648Z,100739.91
2022-08-16T17:48:12.270Z,100749.31
2022-08-16T17:50:41.607Z,100749.63
2022-08-16T17:53:11.512Z,100751.59
2022-08-16T17:55:42.213Z,100738.13
2022-08-16T17:58:20.129Z,100739.25
2022-08-16T18:00:54.757Z,100741.22
2022-08-16T18:04:02.667Z,100739.25
2022-08-16T18:06:15.362Z,100742.84
2022-08-16T18:08:43.111Z,100751.94
2022-08-16T18:11:13.340Z,100743.66
2022-08-16T18:13:43.063Z,100745.25
2022-08-16T18:16:14.631Z,100758.25
2022-08-16T18:18:46.097Z,100762.16
2022-08-16T18:21:32.989Z,100767.69
2022-08-16T18:24:00.837Z,100756.97
2022-08-16T18:26:28.645Z,100756.16
2022-08-16T18:28:56.338Z,100752.59
2022-08-16T18:31:25.955Z,100752.59
2022-08-16T18:33:55.541Z,100752.94
2022-08-16T18:36:23.965Z,100756.84
2022-08-16T18:38:53.117Z,100757.19
2022-08-16T18:41:21.983Z,100752.81
2022-08-16T18:44:14.207Z,100754.75
2022-08-16T18:46:39.611Z,100759.81
2022-08-16T18:49:07.705Z,100759.00
2022-08-16T18:51:36.906Z,100760.16
2022-08-16T18:54:05.050Z,100757.72
2022-08-16T18:56:54.330Z,100759.22
2022-08-16T18:59:20.419Z,100758.75
2022-08-16T19:01:50.342Z,100769.31
2022-08-16T19:04:55.531Z,100774.81
2022-08-16T19:07:05.830Z,100778.72
2022-08-16T19:09:34.097Z,100775.16
2022-08-16T19:12:05.059Z,100786.22
2022-08-16T19:14:32.742Z,100786.22
2022-08-16T19:17:01.800Z,100803.91
2022-08-16T19:19:29.518Z,100805.88
2022-08-16T19:21:58.244Z,100820.81
2022-08-16T19:24:29.230Z,100824.72
2022-08-16T19:26:57.329Z,100827.81
2022-08-16T19:29:25.286Z,100828.13
2022-08-16T19:31:53.132Z,100832.03
2022-08-16T19:34:22.171Z,100824.78
2022-08-16T19:36:49.870Z,100828.00
2022-08-16T19:39:18.174Z,100835.81
2022-08-16T19:41:52.990Z,100836.13
2022-08-16T19:44:22.112Z,100837.28
2022-08-16T19:46:49.823Z,100838.94
2022-08-16T19:49:17.944Z,100839.91
2022-08-16T19:51:47.731Z,100856.78
2022-08-16T19:54:15.955Z,100858.75
2022-08-16T19:56:43.706Z,100861.81
2022-08-16T19:59:20.561Z,100855.84
2022-08-16T20:01:52.832Z,100855.03
2022-08-16T20:04:22.007Z,100850.66
2022-08-16T20:06:52.557Z,100852.13
2022-08-16T20:09:20.648Z,100850.19
2022-08-16T20:11:49.570Z,100839.47
2022-08-16T20:14:20.141Z,100848.88
2022-08-16T20:16:54.801Z,100836.25
2022-08-16T20:19:22.523Z,100836.25
2022-08-16T20:21:51.626Z,100836.25
2022-08-16T20:24:36.034Z,100843.69
2022-08-16T20:27:06.288Z,100845.66
2022-08-16T20:29:34.710Z,100855.88
2022-08-16T20:32:02.728Z,100860.91
2022-08-16T20:34:30.473Z,100860.13
2022-08-16T20:36:59.544Z,100860.13
2022-08-16T20:39:27.925Z,100857.34
2022-08-16T20:41:55.650Z,100856.53
2022-08-16T20:44:25.172Z,100854.13
2022-08-16T20:46:53.252Z,100858.03
2022-08-16T20:49:20.986Z,100858.03
2022-08-16T20:51:50.982Z,100854.44
2022-08-16T20:54:23.044Z,100861.41
2022-08-16T20:56:50.795Z,100851.19
2022-08-16T20:59:18.578Z,100847.94
2022-08-16T21:01:50.629Z,100842.75
2022-08-16T21:04:19.713Z,100863.22
2022-08-16T21:06:52.991Z,100861.59
2022-08-16T21:09:23.175Z,100859.16
2022-08-16T21:11:52.987Z,100865.00
2022-08-16T21:14:20.762Z,100870.84
2022-08-16T21:16:48.512Z,100875.56
2022-08-16T21:19:16.348Z,100868.44
2022-08-16T21:21:44.050Z,100866.81
2022-08-16T21:24:11.737Z,100877.38
2022-08-16T21:26:40.803Z,100875.75
2022-08-16T21:29:21.646Z,100874.47
2022-08-16T21:31:52.566Z,100886.63
2022-08-16T21:34:20.330Z,100881.13
2022-08-16T21:36:48.644Z,100888.09
2022-08-16T21:39:16.332Z,100892.00
2022-08-16T21:41:45.364Z,100876.59
2022-08-16T21:44:13.033Z,100869.78
2022-08-16T21:46:40.739Z,100875.63
2022-08-16T21:49:08.422Z,100879.84
2022-08-16T21:51:36.252Z,100887.66
2022-08-16T21:54:04.092Z,100884.88
2022-08-16T21:56:31.979Z,100887.16
2022-08-16T21:59:01.023Z,100891.06
2022-08-16T22:01:29.516Z,100887.81
2022-08-16T22:04:09.536Z,100895.28
2022-08-16T22:06:45.036Z,100887.34
2022-08-16T22:09:15.476Z,100887.66
2022-08-16T22:11:44.206Z,100883.63
2022-08-16T22:14:13.206Z,100885.91
2022-08-16T22:16:42.043Z,100888.66
2022-08-16T22:19:09.875Z,100894.50
2022-08-16T22:21:37.602Z,100888.16
2022-08-16T22:24:06.244Z,100888.50
2022-08-16T22:26:42.275Z,100889.63
2022-08-16T22:29:14.826Z,100878.59
2022-08-16T22:31:44.334Z,100883.63
2022-08-16T22:34:12.838Z,100878.13
2022-08-16T22:36:40.848Z,100883.16
2022-08-16T22:39:11.068Z,100875.22
2022-08-16T22:41:39.935Z,100877.50
2022-08-16T22:44:08.132Z,100873.13
2022-08-16T22:46:38.402Z,100865.16
2022-08-16T22:49:07.747Z,100877.00
2022-08-16T22:51:36.653Z,100872.63
2022-08-16T22:54:47.362Z,100874.91
2022-08-16T22:56:52.873Z,100869.69
2022-08-16T22:59:20.565Z,100863.69
2022-08-16T23:01:49.614Z,100865.97
2022-08-16T23:04:17.627Z,100866.78
2022-08-16T23:06:45.342Z,100869.84
2022-08-16T23:09:13.106Z,100869.38
2022-08-16T23:11:40.797Z,100863.06
2022-08-16T23:14:08.486Z,100867.28
2022-08-16T23:16:36.168Z,100863.72
2022-08-16T23:19:07.230Z,100864.03
2022-08-16T23:21:37.105Z,100866.78
2022-08-16T23:24:06.885Z,100861.59
2022-08-16T23:26:46.564Z,100860.31
2022-08-16T23:29:23.571Z,100864.53
2022-08-16T23:31:53.600Z,100868.41
2022-08-16T23:34:22.967Z,100866.78
2022-08-16T23:36:50.646Z,100868.25
2022-08-16T23:39:18.330Z,100861.44
2022-08-16T23:41:46.056Z,100860.97
2022-08-16T23:44:56.780Z,100870.03
2022-08-16T23:47:01.585Z,100861.66
2022-08-16T23:50:01.029Z,100856.47
2022-08-16T23:52:18.996Z,100854.84
2022-08-16T23:55:07.520Z,100855.97
2022-08-16T23:57:35.196Z,100847.22
